createdAt,value
2017-06-20T00:00:44.581Z,53.80
2017-06-20T00:03:12.899Z,53.70
2017-06-20T00:05:41.211Z,53.60
2017-06-20T00:08:09.495Z,53.70
2017-06-20T00:10:38.543Z,54.00
2017-06-20T00:13:06.847Z,54.00
2017-06-20T00:15:35.134Z,54.20
2017-06-20T00:18:03.660Z,54.30
2017-06-20T00:20:32.713Z,54.30
2017-06-20T00:23:01.003Z,54.30
2017-06-20T00:25:29.282Z,54.40
2017-06-20T00:27:57.580Z,54.60
2017-06-20T00:30:25.882Z,54.60
2017-06-20T00:32:54.251Z,54.60
2017-06-20T00:35:23.715Z,55.00
2017-06-20T00:37:52.176Z,54.90
2017-06-20T00:40:20.686Z,55.10
2017-06-20T00:42:48.959Z,55.10
2017-06-20T00:45:17.296Z,55.00
2017-06-20T00:47:46.343Z,55.20
2017-06-20T00:50:15.415Z,55.90
2017-06-20T00:52:43.786Z,55.20
2017-06-20T00:55:12.067Z,55.90
2017-06-20T00:57:40.377Z,55.50
2017-06-20T01:00:08.656Z,55.50
2017-06-20T01:02:37.039Z,55.60
2017-06-20T01:05:05.402Z,55.70
2017-06-20T01:07:33.691Z,55.90
2017-06-20T01:10:01.976Z,56.00
2017-06-20T01:12:30.323Z,56.20
2017-06-20T01:14:58.747Z,56.30
2017-06-20T01:17:27.063Z,56.40
2017-06-20T01:19:55.409Z,56.60
2017-06-20T01:22:24.456Z,56.90
2017-06-20T01:24:52.848Z,56.60
2017-06-20T01:27:22.033Z,56.80
2017-06-20T01:29:51.083Z,57.20
2017-06-20T01:32:19.359Z,56.90
2017-06-20T01:34:47.691Z,57.00
2017-06-20T01:37:16.096Z,57.10
2017-06-20T01:39:45.157Z,57.60
2017-06-20T01:42:13.433Z,57.40
2017-06-20T01:44:41.944Z,57.50
2017-06-20T01:47:10.236Z,57.70
2017-06-20T01:49:38.674Z,57.70
2017-06-20T01:52:06.947Z,57.70
2017-06-20T01:54:35.238Z,57.70
2017-06-20T01:57:04.112Z,57.80
2017-06-20T01:59:32.417Z,57.70
2017-06-20T02:02:01.383Z,57.50
2017-06-20T02:04:29.660Z,57.90
2017-06-20T02:06:57.951Z,57.80
2017-06-20T02:09:26.361Z,57.90
2017-06-20T02:11:55.510Z,57.90
2017-06-20T02:14:23.904Z,57.90
2017-06-20T02:16:52.958Z,57.70
2017-06-20T02:19:21.241Z,57.70
2017-06-20T02:21:49.575Z,57.90
2017-06-20T02:24:17.855Z,57.90
2017-06-20T02:26:46.290Z,57.80
2017-06-20T02:29:14.567Z,57.90
2017-06-20T02:31:42.887Z,58.00
2017-06-20T02:34:11.176Z,58.10
2017-06-20T02:36:39.465Z,58.30
2017-06-20T02:39:07.939Z,58.40
2017-06-20T02:41:36.216Z,58.00
2017-06-20T02:44:04.779Z,58.10
2017-06-20T02:46:33.317Z,58.40
2017-06-20T02:49:01.780Z,58.40
2017-06-20T02:51:30.362Z,58.90
2017-06-20T02:53:58.652Z,58.60
2017-06-20T02:56:27.026Z,58.80
2017-06-20T02:58:55.348Z,58.70
2017-06-20T03:01:23.631Z,58.70
2017-06-20T03:03:52.027Z,58.90
2017-06-20T03:06:20.324Z,58.80
2017-06-20T03:08:48.788Z,58.80
2017-06-20T03:11:17.075Z,58.90
2017-06-20T03:13:45.369Z,58.90
2017-06-20T03:16:13.695Z,58.90
2017-06-20T03:18:42.861Z,58.90
2017-06-20T03:21:11.247Z,58.90
2017-06-20T03:23:40.529Z,59.20
2017-06-20T03:26:09.592Z,59.20
2017-06-20T03:28:37.870Z,59.20
2017-06-20T03:31:06.326Z,59.30
2017-06-20T03:33:34.616Z,59.30
2017-06-20T03:36:03.723Z,59.40
2017-06-20T03:38:32.096Z,59.30
2017-06-20T03:41:00.479Z,59.20
2017-06-20T03:43:28.778Z,59.10
2017-06-20T03:45:58.152Z,59.10
2017-06-20T03:48:26.632Z,59.10
2017-06-20T03:50:56.131Z,59.20
2017-06-20T03:53:24.431Z,59.20
2017-06-20T03:55:52.699Z,59.40
2017-06-20T03:58:21.220Z,59.50
2017-06-20T04:00:49.543Z,59.80
2017-06-20T04:03:17.832Z,59.80
2017-06-20T04:05:46.890Z,59.90
2017-06-20T04:08:15.172Z,59.90
2017-06-20T04:10:43.715Z,60.30
2017-06-20T04:13:12.091Z,60.10
2017-06-20T04:15:41.180Z,60.30
2017-06-20T04:18:10.225Z,61.20
2017-06-20T04:20:38.702Z,61.20
2017-06-20T04:23:07.076Z,61.10
2017-06-20T04:25:35.443Z,61.00
2017-06-20T04:28:04.532Z,62.70
2017-06-20T04:30:32.796Z,62.00
2017-06-20T04:33:01.897Z,59.90
2017-06-20T04:35:31.135Z,59.80
2017-06-20T04:37:59.430Z,59.70
2017-06-20T04:40:28.469Z,62.00
2017-06-20T04:42:56.771Z,61.90
2017-06-20T04:45:25.927Z,62.20
2017-06-20T04:47:54.215Z,62.10
2017-06-20T04:50:23.276Z,62.40
2017-06-20T04:52:51.864Z,62.30
2017-06-20T04:55:20.194Z,62.70
2017-06-20T04:57:48.502Z,61.90
2017-06-20T05:00:16.789Z,61.60
2017-06-20T05:02:45.066Z,62.90
2017-06-20T05:05:13.540Z,63.50
2017-06-20T05:07:42.143Z,61.60
2017-06-20T05:10:10.676Z,59.50
2017-06-20T05:12:39.039Z,59.00
2017-06-20T05:15:08.219Z,61.40
2017-06-20T05:17:37.265Z,61.50
2017-06-20T05:20:05.671Z,61.20
2017-06-20T05:22:33.987Z,61.40
2017-06-20T05:25:02.263Z,62.20
2017-06-20T05:27:31.368Z,61.10
2017-06-20T05:29:59.653Z,61.00
2017-06-20T05:32:28.037Z,59.10
2017-06-20T05:34:57.081Z,55.70
2017-06-20T05:37:25.452Z,55.70
2017-06-20T05:39:53.737Z,55.20
2017-06-20T05:42:22.803Z,54.60
2017-06-20T05:44:51.083Z,54.50
2017-06-20T05:47:19.374Z,55.10
2017-06-20T05:49:47.831Z,55.10
2017-06-20T05:52:16.109Z,55.00
2017-06-20T05:54:44.406Z,54.50
2017-06-20T05:57:12.702Z,54.80
2017-06-20T05:59:40.991Z,55.40
2017-06-20T06:02:09.319Z,56.30
2017-06-20T06:04:38.413Z,55.40
2017-06-20T06:07:06.717Z,55.40
2017-06-20T06:09:35.015Z,55.70
2017-06-20T06:12:04.056Z,55.00
2017-06-20T06:14:32.346Z,54.90
2017-06-20T06:17:01.514Z,53.90
2017-06-20T06:19:29.796Z,53.90
2017-06-20T06:21:58.108Z,53.60
2017-06-20T06:24:26.375Z,53.30
2017-06-20T06:26:54.767Z,53.90
2017-06-20T06:29:23.046Z,54.10
2017-06-20T06:31:51.535Z,54.30
2017-06-20T06:34:19.822Z,55.30
2017-06-20T06:36:48.127Z,56.30
2017-06-20T06:39:16.608Z,57.00
2017-06-20T06:41:45.644Z,59.50
2017-06-20T06:44:13.943Z,59.00
2017-06-20T06:46:43.095Z,58.00
2017-06-20T06:49:11.506Z,58.00
2017-06-20T06:51:39.791Z,58.00
2017-06-20T06:54:08.080Z,57.90
2017-06-20T06:56:36.499Z,58.20
2017-06-20T06:59:04.792Z,57.80
2017-06-20T07:01:33.212Z,57.10
2017-06-20T07:04:01.702Z,56.60
2017-06-20T07:06:29.982Z,56.50
2017-06-20T07:08:58.250Z,57.70
2017-06-20T07:11:27.619Z,58.20
2017-06-20T07:13:55.922Z,57.00
2017-06-20T07:16:24.214Z,58.00
2017-06-20T07:18:53.253Z,56.10
2017-06-20T07:21:21.839Z,56.10
2017-06-20T07:23:50.115Z,56.00
2017-06-20T07:26:19.195Z,55.60
2017-06-20T07:28:47.684Z,55.70
2017-06-20T07:31:15.987Z,55.40
2017-06-20T07:33:44.365Z,55.20
2017-06-20T07:36:12.643Z,55.20
2017-06-20T07:38:40.923Z,54.90
2017-06-20T07:41:09.447Z,54.70
2017-06-20T07:43:37.819Z,54.80
2017-06-20T07:46:06.079Z,54.80
2017-06-20T07:48:34.371Z,55.00
2017-06-20T07:51:03.512Z,52.70
2017-06-20T07:53:31.814Z,52.70
2017-06-20T07:56:00.135Z,53.00
2017-06-20T07:58:28.428Z,53.10
2017-06-20T08:00:57.809Z,53.50
2017-06-20T08:03:26.184Z,53.50
2017-06-20T08:05:55.268Z,53.70
2017-06-20T08:08:24.423Z,54.00
2017-06-20T08:10:52.730Z,53.90
2017-06-20T08:13:21.047Z,53.60
2017-06-20T08:15:50.922Z,53.50
2017-06-20T08:18:19.178Z,53.00
2017-06-20T08:20:47.515Z,53.00
2017-06-20T08:23:16.166Z,53.00
2017-06-20T08:25:45.219Z,52.70
2017-06-20T08:28:13.603Z,52.60
2017-06-20T08:30:41.885Z,52.80
2017-06-20T08:33:10.168Z,52.80
2017-06-20T08:35:38.484Z,52.20
2017-06-20T08:38:06.769Z,51.40
2017-06-20T08:40:35.049Z,51.00
2017-06-20T08:43:03.455Z,50.30
2017-06-20T08:45:31.745Z,50.30
2017-06-20T08:48:00.071Z,49.30
2017-06-20T08:50:28.745Z,50.10
2017-06-20T08:52:57.140Z,49.50
2017-06-20T08:55:26.595Z,48.50
2017-06-20T08:57:54.900Z,48.50
2017-06-20T09:00:23.952Z,49.30
2017-06-20T09:02:52.260Z,49.30
2017-06-20T09:05:20.697Z,49.40
2017-06-20T09:07:49.745Z,50.30
2017-06-20T09:10:18.112Z,49.70
2017-06-20T09:12:46.399Z,50.00
2017-06-20T09:15:14.772Z,50.00
2017-06-20T09:17:43.815Z,50.40
2017-06-20T09:20:12.136Z,50.30
2017-06-20T09:22:40.405Z,49.80
2017-06-20T09:25:08.743Z,49.90
2017-06-20T09:27:37.877Z,48.00
2017-06-20T09:30:06.399Z,47.90
2017-06-20T09:32:34.851Z,48.70
2017-06-20T09:35:03.217Z,48.00
2017-06-20T09:37:32.254Z,46.90
2017-06-20T09:40:00.957Z,46.80
2017-06-20T09:42:29.251Z,46.60
2017-06-20T09:44:57.543Z,46.50
2017-06-20T09:47:26.235Z,46.60
2017-06-20T09:49:54.799Z,47.40
2017-06-20T09:52:23.088Z,47.30
2017-06-20T09:54:52.131Z,46.50
2017-06-20T09:57:20.698Z,46.50
2017-06-20T09:59:48.974Z,46.80
2017-06-20T10:02:17.259Z,46.10
2017-06-20T10:04:46.319Z,45.60
2017-06-20T10:07:14.655Z,45.60
2017-06-20T10:09:43.006Z,45.90
2017-06-20T10:12:11.416Z,46.00
2017-06-20T10:14:40.603Z,45.10
2017-06-20T10:17:09.647Z,45.10
2017-06-20T10:19:37.953Z,45.00
2017-06-20T10:22:06.998Z,44.80
2017-06-20T10:24:35.287Z,44.80
2017-06-20T10:27:05.106Z,44.70
2017-06-20T10:29:34.139Z,45.00
2017-06-20T10:32:02.419Z,45.00
2017-06-20T10:34:30.723Z,44.60
2017-06-20T10:36:59.008Z,44.50
2017-06-20T10:39:27.414Z,44.30
2017-06-20T10:41:56.479Z,44.40
2017-06-20T10:44:24.755Z,44.30
2017-06-20T10:46:53.811Z,45.80
2017-06-20T10:49:22.292Z,45.70
2017-06-20T10:51:50.735Z,45.20
2017-06-20T10:54:19.436Z,44.90
2017-06-20T10:56:47.732Z,43.60
2017-06-20T10:59:16.005Z,42.90
2017-06-20T11:01:44.282Z,43.60
2017-06-20T11:04:12.659Z,43.90
2017-06-20T11:06:40.934Z,43.80
2017-06-20T11:09:09.220Z,44.00
2017-06-20T11:11:37.512Z,43.60
2017-06-20T11:14:06.316Z,43.90
2017-06-20T11:16:34.719Z,44.00
2017-06-20T11:19:04.002Z,44.80
2017-06-20T11:21:32.311Z,44.80
2017-06-20T11:24:00.604Z,44.90
2017-06-20T11:26:28.980Z,44.80
2017-06-20T11:28:57.268Z,44.80
2017-06-20T11:31:25.619Z,44.80
2017-06-20T11:33:54.663Z,44.70
2017-06-20T11:36:22.961Z,44.60
2017-06-20T11:38:51.999Z,45.50
2017-06-20T11:41:20.356Z,45.50
2017-06-20T11:43:48.632Z,45.60
2017-06-20T11:46:16.925Z,45.50
2017-06-20T11:48:46.020Z,45.30
2017-06-20T11:51:14.339Z,45.30
2017-06-20T11:53:42.719Z,45.30
2017-06-20T11:56:11.776Z,45.20
2017-06-20T11:58:40.084Z,45.20
2017-06-20T12:01:08.391Z,44.80
2017-06-20T12:03:36.887Z,44.90
2017-06-20T12:06:05.507Z,45.00
2017-06-20T12:08:36.417Z,44.90
2017-06-20T12:11:04.761Z,45.40
2017-06-20T12:13:33.051Z,44.70
2017-06-20T12:16:01.335Z,44.90
2017-06-20T12:18:30.528Z,43.70
2017-06-20T12:20:58.811Z,43.70
2017-06-20T12:23:27.874Z,43.50
2017-06-20T12:25:56.146Z,43.50
2017-06-20T12:28:24.720Z,43.40
2017-06-20T12:30:53.771Z,43.10
2017-06-20T12:33:22.050Z,42.70
2017-06-20T12:35:50.337Z,43.30
2017-06-20T12:38:18.652Z,42.80
2017-06-20T12:40:47.066Z,42.60
2017-06-20T12:43:16.103Z,43.50
2017-06-20T12:45:44.670Z,43.40
2017-06-20T12:48:13.054Z,43.40
2017-06-20T12:50:41.345Z,43.10
2017-06-20T12:53:09.615Z,42.70
2017-06-20T12:55:37.910Z,42.80
2017-06-20T12:58:06.206Z,43.30
2017-06-20T13:00:34.601Z,42.10
2017-06-20T13:03:02.877Z,42.20
2017-06-20T13:05:31.152Z,42.20
2017-06-20T13:07:59.443Z,42.90
2017-06-20T13:10:27.731Z,42.40
2017-06-20T13:12:56.786Z,41.70
2017-06-20T13:15:25.058Z,41.70
2017-06-20T13:17:53.603Z,42.10
2017-06-20T13:20:21.986Z,43.20
2017-06-20T13:22:51.043Z,42.40
2017-06-20T13:25:19.331Z,42.40
2017-06-20T13:27:48.392Z,40.90
2017-06-20T13:30:16.960Z,40.90
2017-06-20T13:32:45.249Z,40.40
2017-06-20T13:35:13.604Z,41.60
2017-06-20T13:37:42.815Z,42.10
2017-06-20T13:40:11.106Z,42.10
2017-06-20T13:42:39.420Z,42.20
2017-06-20T13:45:08.459Z,42.20
2017-06-20T13:47:37.424Z,42.20
2017-06-20T13:50:05.800Z,41.10
2017-06-20T13:52:34.099Z,42.30
2017-06-20T13:55:03.151Z,42.90
2017-06-20T13:57:31.427Z,42.80
2017-06-20T14:00:00.552Z,42.70
2017-06-20T14:02:28.826Z,42.70
2017-06-20T14:04:57.111Z,42.50
2017-06-20T14:07:25.386Z,42.50
2017-06-20T14:09:53.730Z,42.10
2017-06-20T14:12:22.139Z,42.00
2017-06-20T14:14:51.192Z,42.30
2017-06-20T14:17:19.471Z,42.20
2017-06-20T14:19:48.521Z,42.90
2017-06-20T14:22:16.800Z,42.90
2017-06-20T14:24:45.111Z,42.50
2017-06-20T14:27:13.384Z,41.00
2017-06-20T14:29:41.659Z,41.50
2017-06-20T14:32:09.954Z,41.20
2017-06-20T14:34:38.312Z,41.40
2017-06-20T14:37:06.727Z,42.00
2017-06-20T14:39:35.002Z,41.10
2017-06-20T14:42:03.295Z,41.70
2017-06-20T14:44:31.770Z,42.10
2017-06-20T14:47:00.821Z,42.10
2017-06-20T14:49:29.091Z,42.00
2017-06-20T14:51:57.389Z,41.80
2017-06-20T14:54:26.431Z,41.40
2017-06-20T14:56:54.708Z,41.40
2017-06-20T14:59:22.994Z,41.40
2017-06-20T15:01:51.448Z,41.00
2017-06-20T15:04:20.503Z,41.20
2017-06-20T15:06:48.781Z,41.10
2017-06-20T15:09:17.831Z,40.90
2017-06-20T15:11:46.173Z,40.80
2017-06-20T15:14:14.620Z,40.40
2017-06-20T15:16:43.157Z,41.20
2017-06-20T15:19:11.427Z,41.60
2017-06-20T15:21:40.468Z,42.10
2017-06-20T15:24:08.756Z,42.10
2017-06-20T15:26:37.057Z,42.30
2017-06-20T15:29:05.356Z,42.60
2017-06-20T15:31:33.631Z,41.60
2017-06-20T15:34:02.027Z,41.40
2017-06-20T15:36:31.075Z,41.30
2017-06-20T15:38:59.371Z,41.20
2017-06-20T15:41:27.663Z,41.30
2017-06-20T15:43:55.948Z,41.10
2017-06-20T15:46:24.367Z,40.80
2017-06-20T15:48:52.633Z,40.60
2017-06-20T15:51:20.915Z,40.50
2017-06-20T15:53:49.338Z,40.70
2017-06-20T15:56:17.720Z,41.10
2017-06-20T15:58:46.012Z,40.70
2017-06-20T16:01:14.437Z,41.10
2017-06-20T16:03:42.912Z,40.70
2017-06-20T16:06:11.215Z,40.50
2017-06-20T16:08:39.510Z,40.20
2017-06-20T16:11:08.569Z,39.40
2017-06-20T16:13:36.863Z,39.40
2017-06-20T16:16:05.148Z,39.90
2017-06-20T16:18:33.474Z,40.30
2017-06-20T16:21:02.552Z,40.90
2017-06-20T16:23:31.614Z,41.20
2017-06-20T16:25:59.888Z,40.80
2017-06-20T16:28:28.366Z,40.20
2017-06-20T16:30:56.822Z,40.20
2017-06-20T16:33:25.107Z,40.80
2017-06-20T16:35:53.383Z,42.60
2017-06-20T16:38:21.823Z,43.40
2017-06-20T16:40:50.867Z,44.20
2017-06-20T16:43:19.159Z,44.20
2017-06-20T16:45:48.200Z,45.20
2017-06-20T16:48:16.484Z,45.10
2017-06-20T16:50:44.765Z,45.40
2017-06-20T16:53:13.133Z,45.90
2017-06-20T16:55:41.584Z,45.80
2017-06-20T16:58:10.631Z,46.10
2017-06-20T17:00:38.934Z,46.10
2017-06-20T17:03:07.995Z,47.00
2017-06-20T17:05:36.282Z,46.90
2017-06-20T17:08:04.565Z,46.90
2017-06-20T17:10:32.959Z,47.10
2017-06-20T17:13:01.352Z,47.30
2017-06-20T17:15:29.643Z,47.10
2017-06-20T17:17:57.919Z,47.40
2017-06-20T17:20:26.252Z,47.40
2017-06-20T17:22:54.605Z,48.10
2017-06-20T17:25:23.722Z,48.90
2017-06-20T17:27:52.099Z,48.90
2017-06-20T17:30:20.443Z,49.70
2017-06-20T17:32:48.721Z,50.10
2017-06-20T17:35:17.123Z,50.10
2017-06-20T17:37:45.859Z,50.20
2017-06-20T17:40:14.130Z,50.60
2017-06-20T17:42:42.463Z,50.70
2017-06-20T17:45:10.759Z,50.90
2017-06-20T17:47:39.047Z,51.20
2017-06-20T17:50:07.327Z,51.50
2017-06-20T17:52:35.633Z,51.70
2017-06-20T17:55:03.911Z,51.90
2017-06-20T17:57:32.212Z,52.40
2017-06-20T18:00:01.244Z,51.80
2017-06-20T18:02:29.561Z,51.80
2017-06-20T18:04:58.601Z,52.40
2017-06-20T18:07:26.896Z,52.40
2017-06-20T18:09:55.199Z,52.60
2017-06-20T18:12:23.539Z,52.50
2017-06-20T18:14:51.814Z,52.30
2017-06-20T18:17:20.216Z,52.60
2017-06-20T18:19:48.501Z,53.20
2017-06-20T18:22:17.544Z,53.90
2017-06-20T18:24:45.836Z,53.30
2017-06-20T18:27:14.143Z,53.40
2017-06-20T18:29:42.429Z,53.60
2017-06-20T18:32:10.722Z,53.70
2017-06-20T18:34:39.019Z,53.90
2017-06-20T18:37:30.191Z,54.20
2017-06-20T18:39:59.246Z,54.50
2017-06-20T18:42:27.528Z,54.40
2017-06-20T18:44:55.840Z,54.50
2017-06-20T18:47:24.167Z,54.70
2017-06-20T18:49:52.467Z,54.70
2017-06-20T18:52:20.747Z,54.90
2017-06-20T18:54:49.047Z,55.20
2017-06-20T18:57:18.249Z,56.00
2017-06-20T18:59:46.697Z,55.90
2017-06-20T19:02:14.981Z,56.00
2017-06-20T19:04:43.263Z,56.50
2017-06-20T19:07:11.583Z,56.80
2017-06-20T19:09:39.899Z,57.00
2017-06-20T19:12:08.199Z,57.20
2017-06-20T19:14:36.667Z,57.60
2017-06-20T19:17:05.730Z,57.70
2017-06-20T19:19:34.114Z,57.60
2017-06-20T19:22:03.054Z,57.70
2017-06-20T19:24:32.031Z,58.10
2017-06-20T19:27:00.406Z,58.40
2017-06-20T19:29:28.670Z,58.70
2017-06-20T19:31:56.978Z,58.90
2017-06-20T19:34:25.261Z,59.20
2017-06-20T19:36:53.551Z,59.50
2017-06-20T19:39:21.831Z,60.70
2017-06-20T19:41:51.690Z,61.90
2017-06-20T19:44:20.100Z,61.90
2017-06-20T19:46:48.428Z,62.50
2017-06-20T19:49:17.848Z,64.30
2017-06-20T19:51:46.564Z,63.80
2017-06-20T19:54:14.995Z,64.60
2017-06-20T19:56:43.401Z,65.10
2017-06-20T19:59:11.827Z,65.80
2017-06-20T20:01:40.259Z,66.30
2017-06-20T20:04:08.638Z,66.90
2017-06-20T20:06:36.962Z,67.80
2017-06-20T20:09:05.272Z,68.50
2017-06-20T20:11:33.709Z,69.00
2017-06-20T20:14:02.766Z,69.90
2017-06-20T20:16:31.130Z,69.80
2017-06-20T20:19:00.026Z,70.50
2017-06-20T20:21:28.527Z,71.00
2017-06-20T20:23:57.273Z,71.50
2017-06-20T20:26:25.629Z,72.00
2017-06-20T20:28:53.972Z,72.40
2017-06-20T20:31:23.046Z,73.50
2017-06-20T20:33:51.338Z,73.50
2017-06-20T20:36:19.716Z,73.90
2017-06-20T20:38:48.001Z,74.20
2017-06-20T20:41:16.296Z,74.50
2017-06-20T20:43:44.743Z,74.90
2017-06-20T20:46:13.256Z,75.20
2017-06-20T20:48:42.353Z,76.40
2017-06-20T20:51:12.246Z,76.60
2017-06-20T20:53:40.591Z,76.60
2017-06-20T20:56:10.527Z,77.00
2017-06-20T20:58:38.812Z,76.90
2017-06-20T21:01:07.179Z,77.40
2017-06-20T21:03:35.478Z,77.90
2017-06-20T21:06:04.615Z,78.20
2017-06-20T21:08:32.920Z,78.70
2017-06-20T21:11:01.959Z,79.40
2017-06-20T21:13:30.275Z,79.90
2017-06-20T21:15:59.295Z,79.70
2017-06-20T21:18:27.590Z,79.40
2017-06-20T21:20:55.872Z,79.80
2017-06-20T21:23:24.216Z,80.50
2017-06-20T21:25:52.477Z,80.70
2017-06-20T21:28:20.883Z,80.80
2017-06-20T21:30:49.171Z,81.10
2017-06-20T21:33:17.466Z,81.10
2017-06-20T21:35:46.514Z,80.70
2017-06-20T21:38:14.867Z,80.00
2017-06-20T21:40:43.174Z,79.80
2017-06-20T21:43:12.261Z,79.30
2017-06-20T21:45:41.056Z,79.90
2017-06-20T21:48:09.591Z,79.20
2017-06-20T21:50:37.986Z,79.30
2017-06-20T21:53:06.279Z,79.10
2017-06-20T21:55:34.650Z,79.10
2017-06-20T21:58:02.899Z,78.50
2017-06-20T22:00:31.263Z,78.50
2017-06-20T22:03:00.074Z,78.20
2017-06-20T22:05:28.387Z,78.70
2017-06-20T22:07:56.893Z,78.30
2017-06-20T22:10:25.186Z,78.50
2017-06-20T22:12:53.486Z,78.20
2017-06-20T22:15:21.763Z,78.50
2017-06-20T22:17:50.100Z,78.60
2017-06-20T22:20:19.610Z,78.80
2017-06-20T22:22:48.060Z,78.90
2017-06-20T22:25:16.353Z,79.20
2017-06-20T22:27:44.663Z,79.60
2017-06-20T22:30:12.983Z,79.70
2017-06-20T22:32:41.299Z,80.00
2017-06-20T22:35:09.605Z,80.30
2017-06-20T22:37:37.920Z,80.20
2017-06-20T22:40:06.197Z,81.40
2017-06-20T22:42:34.491Z,81.20
2017-06-20T22:45:02.791Z,81.40
2017-06-20T22:47:31.120Z,81.90
2017-06-20T22:49:59.423Z,81.80
2017-06-20T22:52:27.719Z,81.90
2017-06-20T22:54:56.025Z,81.70
2017-06-20T22:57:25.077Z,82.40
2017-06-20T22:59:53.366Z,82.30
2017-06-20T23:02:22.513Z,83.10
2017-06-20T23:04:50.803Z,82.40
2017-06-20T23:07:19.092Z,82.80
2017-06-20T23:09:47.383Z,82.70
2017-06-20T23:12:16.347Z,82.70
2017-06-20T23:14:44.643Z,82.90
2017-06-20T23:17:12.923Z,83.10
2017-06-20T23:19:41.984Z,83.60
2017-06-20T23:22:10.266Z,83.20
2017-06-20T23:24:38.575Z,83.70
2017-06-20T23:27:07.891Z,84.20
2017-06-20T23:29:36.175Z,84.20
2017-06-20T23:32:05.244Z,84.60
2017-06-20T23:34:33.532Z,84.60
2017-06-20T23:37:01.877Z,84.80
2017-06-20T23:39:30.188Z,84.50
2017-06-20T23:41:58.503Z,84.50
2017-06-20T23:44:26.782Z,84.60
2017-06-20T23:46:55.866Z,85.20
2017-06-20T23:49:24.191Z,85.20
2017-06-20T23:51:52.478Z,85.10
2017-06-20T23:54:21.528Z,85.40
2017-06-20T23:56:56.255Z,85.40
2017-06-20T23:59:24.603Z,86.20
